Siloam, GA (30665)

5:08 PM EDT on July 06, 2015 (GMT -0400)
Greensboro | | Change Station
CLOSE
Current Station
Airport
Location: Greensboro,
Elevation: 676 ft
Nearby Weather Stations

Elev 676 ft 33.60 °N, 83.14 °W | Updated 13 minutes ago

Clear
Clear
86 °F
Feels Like 87 °F
N
4
Wind Variable Wind from SSW

Today
High -- | Low -- °F
--% Chance of Precip.
Yesterday
High -- | Low -- °F
Precip. -- in
6:28 AM 8:45 PM
Waning Gibbous, 72% visible
Pressure 30.08 in
Visibility 10.0 miles
Clouds Clear
Heat Index 87 °F
Dew Point 64 °F
Humidity 48%
Rainfall 0.00 in
Snow Depth Not available.
UV 6 out of 12
Pollen 3.10 out of 12
Air Quality Not available.
Flu Activity Not available.
METAR K3J7 062055Z AUTO 21003KT 10SM CLR 30/18 A3008 RMK AO2 LTG DSNT NW

More Conditions Fewer Conditions

Pressure 30.08 in
Visibility 10.0 miles
Clouds Clear
Heat Index 87 °F
Dew Point 64 °F
Humidity 48%
Rainfall 0.00 in
Snow Depth Not available.
UV 6 out of 12
Pollen 3.10 out of 12
Air Quality Not available.
Flu Activity Not available.
METAR K3J7 062055Z AUTO 21003KT 10SM CLR 30/18 A3008 RMK AO2 LTG DSNT NW

More Conditions Fewer Conditions

10-Day Weather Forecast

×

Almanac

Astronomy

Jul. 06, 2015 Rise Set
Actual Time
Civil Twilight
Nautical Twilight
Astronomical Twilight
Moon
Length of Visible Light
Length of Day
Tomorrow will be .
, % of the Moon is Illuminated

Today's Extremes

State Highs State Lows

Community

WunderPhotos

Upload Photos

1,835,644 photos uploaded!

WunderBlogs® & News

Nearby

Air Quality

  Air Quality AQ Index Pollutant
Not available.

Snow Depth

Station Depth Elevation

Earthquake Activity

City Distance Mag. Time & Date
Minimum magnitude displayed is 2.5.

Coastal Water Temperatures

Place Temperature

Stations

Nearby Weather Stations

Station Location Temp. Windchill Dew Point Humidity Wind Precip. Elev Updated Type